sensor_id;sensor_type;location;lat;lon;timestamp;P1;durP1;ratioP1;P2;durP2;ratioP2
68074;SDS011;54864;52.002;5.468;2023-03-09T00:00:39;36.00;;;25.20;;
68074;SDS011;54864;52.002;5.468;2023-03-09T00:01:41;35.72;;;24.80;;
68074;SDS011;54864;52.002;5.468;2023-03-09T00:02:46;36.35;;;25.13;;
68074;SDS011;54864;52.002;5.468;2023-03-09T00:03:47;37.83;;;24.40;;
68074;SDS011;54864;52.002;5.468;2023-03-09T00:04:48;38.35;;;26.67;;
68074;SDS011;54864;52.002;5.468;2023-03-09T00:05:54;35.38;;;23.38;;
68074;SDS011;54864;52.002;5.468;2023-03-09T00:06:56;34.65;;;24.27;;
68074;SDS011;54864;52.002;5.468;2023-03-09T00:07:58;37.10;;;24.87;;
68074;SDS011;54864;52.002;5.468;2023-03-09T00:08:59;36.87;;;24.70;;
68074;SDS011;54864;52.002;5.468;2023-03-09T00:10:01;35.83;;;24.15;;
68074;SDS011;54864;52.002;5.468;2023-03-09T00:11:03;35.25;;;24.45;;
68074;SDS011;54864;52.002;5.468;2023-03-09T00:12:05;35.67;;;24.85;;
68074;SDS011;54864;52.002;5.468;2023-03-09T00:13:06;33.30;;;24.08;;
68074;SDS011;54864;52.002;5.468;2023-03-09T00:14:08;33.95;;;23.88;;
68074;SDS011;54864;52.002;5.468;2023-03-09T00:15:10;34.33;;;24.25;;
68074;SDS011;54864;52.002;5.468;2023-03-09T00:16:13;35.85;;;24.63;;
68074;SDS011;54864;52.002;5.468;2023-03-09T00:17:15;34.50;;;24.88;;
68074;SDS011;54864;52.002;5.468;2023-03-09T00:18:18;33.08;;;23.25;;
68074;SDS011;54864;52.002;5.468;2023-03-09T00:19:21;35.63;;;25.23;;
68074;SDS011;54864;52.002;5.468;2023-03-09T00:20:26;32.70;;;23.17;;
68074;SDS011;54864;52.002;5.468;2023-03-09T00:21:27;34.60;;;23.38;;
68074;SDS011;54864;52.002;5.468;2023-03-09T00:22:36;34.80;;;23.80;;
68074;SDS011;54864;52.002;5.468;2023-03-09T00:23:37;37.13;;;23.70;;
68074;SDS011;54864;52.002;5.468;2023-03-09T00:24:38;36.08;;;25.15;;
68074;SDS011;54864;52.002;5.468;2023-03-09T00:25:45;34.20;;;23.50;;
68074;SDS011;54864;52.002;5.468;2023-03-09T00:26:48;36.00;;;24.20;;
68074;SDS011;54864;52.002;5.468;2023-03-09T00:27:50;33.47;;;24.23;;
68074;SDS011;54864;52.002;5.468;2023-03-09T00:28:53;36.55;;;24.92;;
68074;SDS011;54864;52.002;5.468;2023-03-09T00:29:54;35.35;;;23.90;;
68074;SDS011;54864;52.002;5.468;2023-03-09T00:30:59;34.25;;;23.77;;
68074;SDS011;54864;52.002;5.468;2023-03-09T00:32:00;35.80;;;22.63;;
68074;SDS011;54864;52.002;5.468;2023-03-09T00:33:02;35.95;;;24.00;;
68074;SDS011;54864;52.002;5.468;2023-03-09T00:34:04;35.78;;;24.42;;
68074;SDS011;54864;52.002;5.468;2023-03-09T00:35:07;32.60;;;23.23;;
68074;SDS011;54864;52.002;5.468;2023-03-09T00:36:12;35.50;;;24.58;;
68074;SDS011;54864;52.002;5.468;2023-03-09T00:37:14;37.63;;;23.80;;
68074;SDS011;54864;52.002;5.468;2023-03-09T00:38:15;36.22;;;23.67;;
68074;SDS011;54864;52.002;5.468;2023-03-09T00:39:16;34.47;;;23.23;;
68074;SDS011;54864;52.002;5.468;2023-03-09T00:40:18;32.50;;;22.55;;
68074;SDS011;54864;52.002;5.468;2023-03-09T00:41:19;31.05;;;22.80;;
68074;SDS011;54864;52.002;5.468;2023-03-09T00:42:22;31.27;;;22.00;;
68074;SDS011;54864;52.002;5.468;2023-03-09T00:43:23;33.23;;;23.20;;
68074;SDS011;54864;52.002;5.468;2023-03-09T00:44:24;34.72;;;23.90;;
68074;SDS011;54864;52.002;5.468;2023-03-09T00:45:25;36.00;;;23.95;;
68074;SDS011;54864;52.002;5.468;2023-03-09T00:46:27;34.92;;;23.60;;
68074;SDS011;54864;52.002;5.468;2023-03-09T00:47:29;33.13;;;22.20;;
68074;SDS011;54864;52.002;5.468;2023-03-09T00:48:30;34.20;;;22.47;;
68074;SDS011;54864;52.002;5.468;2023-03-09T00:49:33;33.97;;;23.50;;
68074;SDS011;54864;52.002;5.468;2023-03-09T00:50:34;31.58;;;21.88;;
68074;SDS011;54864;52.002;5.468;2023-03-09T00:51:35;34.53;;;24.80;;
68074;SDS011;54864;52.002;5.468;2023-03-09T00:52:37;33.17;;;22.67;;
68074;SDS011;54864;52.002;5.468;2023-03-09T00:53:38;32.40;;;23.20;;
68074;SDS011;54864;52.002;5.468;2023-03-09T00:54:41;33.92;;;23.08;;
68074;SDS011;54864;52.002;5.468;2023-03-09T00:55:41;33.97;;;22.70;;
68074;SDS011;54864;52.002;5.468;2023-03-09T00:56:43;34.03;;;23.35;;
68074;SDS011;54864;52.002;5.468;2023-03-09T00:57:44;34.33;;;23.17;;
68074;SDS011;54864;52.002;5.468;2023-03-09T00:58:46;33.40;;;22.80;;
68074;SDS011;54864;52.002;5.468;2023-03-09T00:59:47;35.20;;;23.85;;
68074;SDS011;54864;52.002;5.468;2023-03-09T01:00:50;34.28;;;23.90;;
68074;SDS011;54864;52.002;5.468;2023-03-09T01:01:51;33.85;;;23.40;;
68074;SDS011;54864;52.002;5.468;2023-03-09T01:02:53;35.28;;;24.02;;
68074;SDS011;54864;52.002;5.468;2023-03-09T01:03:54;35.35;;;23.08;;
68074;SDS011;54864;52.002;5.468;2023-03-09T01:04:57;34.22;;;22.05;;
68074;SDS011;54864;52.002;5.468;2023-03-09T01:05:58;36.40;;;23.88;;
68074;SDS011;54864;52.002;5.468;2023-03-09T01:07:00;34.53;;;23.23;;
68074;SDS011;54864;52.002;5.468;2023-03-09T01:08:01;32.73;;;22.70;;
68074;SDS011;54864;52.002;5.468;2023-03-09T01:09:03;32.58;;;22.35;;
68074;SDS011;54864;52.002;5.468;2023-03-09T01:10:04;34.73;;;22.30;;
68074;SDS011;54864;52.002;5.468;2023-03-09T01:11:06;33.42;;;23.35;;
68074;SDS011;54864;52.002;5.468;2023-03-09T01:12:08;33.88;;;23.50;;
68074;SDS011;54864;52.002;5.468;2023-03-09T01:13:11;34.35;;;22.48;;
68074;SDS011;54864;52.002;5.468;2023-03-09T01:14:11;34.20;;;23.33;;
68074;SDS011;54864;52.002;5.468;2023-03-09T01:15:13;32.72;;;21.88;;
68074;SDS011;54864;52.002;5.468;2023-03-09T01:16:14;33.08;;;23.02;;
68074;SDS011;54864;52.002;5.468;2023-03-09T01:17:16;32.22;;;21.95;;
68074;SDS011;54864;52.002;5.468;2023-03-09T01:18:16;36.10;;;22.48;;
68074;SDS011;54864;52.002;5.468;2023-03-09T01:19:18;34.92;;;23.20;;
68074;SDS011;54864;52.002;5.468;2023-03-09T01:20:20;31.52;;;21.15;;
68074;SDS011;54864;52.002;5.468;2023-03-09T01:21:22;33.67;;;22.55;;
68074;SDS011;54864;52.002;5.468;2023-03-09T01:22:22;32.97;;;21.92;;
68074;SDS011;54864;52.002;5.468;2023-03-09T01:23:24;31.98;;;22.02;;
68074;SDS011;54864;52.002;5.468;2023-03-09T01:24:25;36.28;;;23.60;;
68074;SDS011;54864;52.002;5.468;2023-03-09T01:25:27;32.92;;;22.45;;
68074;SDS011;54864;52.002;5.468;2023-03-09T01:26:28;34.85;;;23.92;;
68074;SDS011;54864;52.002;5.468;2023-03-09T01:27:29;33.47;;;23.23;;
68074;SDS011;54864;52.002;5.468;2023-03-09T01:28:31;32.70;;;22.42;;
68074;SDS011;54864;52.002;5.468;2023-03-09T01:29:34;34.47;;;24.07;;
68074;SDS011;54864;52.002;5.468;2023-03-09T01:30:35;33.20;;;23.13;;
68074;SDS011;54864;52.002;5.468;2023-03-09T01:31:37;34.33;;;23.55;;
68074;SDS011;54864;52.002;5.468;2023-03-09T01:32:38;34.17;;;22.80;;
68074;SDS011;54864;52.002;5.468;2023-03-09T01:33:40;33.35;;;23.08;;
68074;SDS011;54864;52.002;5.468;2023-03-09T01:34:40;32.95;;;23.00;;
68074;SDS011;54864;52.002;5.468;2023-03-09T01:35:43;35.72;;;23.15;;
68074;SDS011;54864;52.002;5.468;2023-03-09T01:36:44;34.05;;;23.75;;
68074;SDS011;54864;52.002;5.468;2023-03-09T01:37:46;32.50;;;22.58;;
68074;SDS011;54864;52.002;5.468;2023-03-09T01:38:47;35.47;;;22.93;;
68074;SDS011;54864;52.002;5.468;2023-03-09T01:39:49;34.03;;;22.35;;
68074;SDS011;54864;52.002;5.468;2023-03-09T01:40:50;35.70;;;23.27;;
68074;SDS011;54864;52.002;5.468;2023-03-09T01:41:51;33.70;;;23.10;;
68074;SDS011;54864;52.002;5.468;2023-03-09T01:42:53;32.55;;;21.23;;
68074;SDS011;54864;52.002;5.468;2023-03-09T01:43:55;33.38;;;22.60;;
68074;SDS011;54864;52.002;5.468;2023-03-09T01:46:10;34.33;;;23.63;;
68074;SDS011;54864;52.002;5.468;2023-03-09T01:46:51;35.53;;;24.57;;
68074;SDS011;54864;52.002;5.468;2023-03-09T01:47:56;34.35;;;22.73;;
68074;SDS011;54864;52.002;5.468;2023-03-09T01:49:00;33.45;;;22.50;;
68074;SDS011;54864;52.002;5.468;2023-03-09T01:50:05;33.83;;;22.65;;
68074;SDS011;54864;52.002;5.468;2023-03-09T01:51:08;35.35;;;23.17;;
68074;SDS011;54864;52.002;5.468;2023-03-09T01:52:11;35.05;;;23.88;;
68074;SDS011;54864;52.002;5.468;2023-03-09T01:53:17;34.08;;;23.20;;
68074;SDS011;54864;52.002;5.468;2023-03-09T01:54:21;35.43;;;23.53;;
68074;SDS011;54864;52.002;5.468;2023-03-09T01:55:28;35.30;;;23.65;;
68074;SDS011;54864;52.002;5.468;2023-03-09T01:56:32;32.38;;;21.55;;
68074;SDS011;54864;52.002;5.468;2023-03-09T01:57:38;33.25;;;23.08;;
68074;SDS011;54864;52.002;5.468;2023-03-09T01:58:43;31.38;;;22.33;;
68074;SDS011;54864;52.002;5.468;2023-03-09T01:59:46;34.83;;;23.80;;
68074;SDS011;54864;52.002;5.468;2023-03-09T02:00:50;36.08;;;23.55;;
68074;SDS011;54864;52.002;5.468;2023-03-09T02:01:54;35.97;;;24.55;;
68074;SDS011;54864;52.002;5.468;2023-03-09T02:02:56;34.38;;;23.35;;
68074;SDS011;54864;52.002;5.468;2023-03-09T02:04:00;36.03;;;24.08;;
68074;SDS011;54864;52.002;5.468;2023-03-09T02:05:07;37.28;;;23.55;;
68074;SDS011;54864;52.002;5.468;2023-03-09T02:06:15;35.67;;;23.77;;
68074;SDS011;54864;52.002;5.468;2023-03-09T02:07:18;35.78;;;23.92;;
68074;SDS011;54864;52.002;5.468;2023-03-09T02:08:22;36.85;;;24.48;;
68074;SDS011;54864;52.002;5.468;2023-03-09T02:09:25;35.10;;;23.38;;
68074;SDS011;54864;52.002;5.468;2023-03-09T02:10:32;38.03;;;25.35;;
68074;SDS011;54864;52.002;5.468;2023-03-09T02:11:35;36.55;;;24.92;;
68074;SDS011;54864;52.002;5.468;2023-03-09T02:12:39;36.60;;;24.65;;
68074;SDS011;54864;52.002;5.468;2023-03-09T02:13:44;34.20;;;23.25;;
68074;SDS011;54864;52.002;5.468;2023-03-09T02:14:49;35.65;;;23.55;;
68074;SDS011;54864;52.002;5.468;2023-03-09T02:15:50;36.22;;;24.67;;
68074;SDS011;54864;52.002;5.468;2023-03-09T02:16:52;37.80;;;24.38;;
68074;SDS011;54864;52.002;5.468;2023-03-09T02:17:53;36.63;;;23.00;;
68074;SDS011;54864;52.002;5.468;2023-03-09T02:18:54;33.38;;;22.95;;
68074;SDS011;54864;52.002;5.468;2023-03-09T02:19:59;36.30;;;24.20;;
68074;SDS011;54864;52.002;5.468;2023-03-09T02:21:07;38.83;;;25.10;;
68074;SDS011;54864;52.002;5.468;2023-03-09T02:22:15;34.45;;;23.30;;
68074;SDS011;54864;52.002;5.468;2023-03-09T02:23:18;39.72;;;25.15;;
68074;SDS011;54864;52.002;5.468;2023-03-09T02:24:26;35.67;;;23.45;;
68074;SDS011;54864;52.002;5.468;2023-03-09T02:25:37;36.08;;;24.33;;
68074;SDS011;54864;52.002;5.468;2023-03-09T02:26:47;36.33;;;24.13;;
68074;SDS011;54864;52.002;5.468;2023-03-09T02:27:54;35.92;;;23.92;;
68074;SDS011;54864;52.002;5.468;2023-03-09T02:28:56;36.50;;;24.10;;
68074;SDS011;54864;52.002;5.468;2023-03-09T02:29:57;34.40;;;23.77;;
68074;SDS011;54864;52.002;5.468;2023-03-09T02:30:59;34.75;;;23.70;;
68074;SDS011;54864;52.002;5.468;2023-03-09T02:32:01;37.03;;;23.60;;
68074;SDS011;54864;52.002;5.468;2023-03-09T02:33:03;37.55;;;24.75;;
68074;SDS011;54864;52.002;5.468;2023-03-09T02:34:05;37.28;;;24.02;;
68074;SDS011;54864;52.002;5.468;2023-03-09T02:35:08;36.53;;;24.67;;
68074;SDS011;54864;52.002;5.468;2023-03-09T02:36:10;36.25;;;23.98;;
68074;SDS011;54864;52.002;5.468;2023-03-09T02:37:22;35.40;;;23.45;;
68074;SDS011;54864;52.002;5.468;2023-03-09T02:38:23;35.97;;;24.05;;
68074;SDS011;54864;52.002;5.468;2023-03-09T02:39:27;36.25;;;24.67;;
68074;SDS011;54864;52.002;5.468;2023-03-09T02:40:33;37.00;;;24.00;;
68074;SDS011;54864;52.002;5.468;2023-03-09T02:41:38;34.58;;;23.75;;
68074;SDS011;54864;52.002;5.468;2023-03-09T02:42:39;34.95;;;23.55;;
68074;SDS011;54864;52.002;5.468;2023-03-09T02:43:43;35.30;;;22.63;;
68074;SDS011;54864;52.002;5.468;2023-03-09T02:44:46;35.30;;;24.05;;
68074;SDS011;54864;52.002;5.468;2023-03-09T02:45:49;34.72;;;23.40;;
68074;SDS011;54864;52.002;5.468;2023-03-09T02:46:50;34.17;;;23.42;;
68074;SDS011;54864;52.002;5.468;2023-03-09T02:47:51;37.55;;;24.95;;
68074;SDS011;54864;52.002;5.468;2023-03-09T02:48:54;35.78;;;24.33;;
68074;SDS011;54864;52.002;5.468;2023-03-09T02:49:56;35.80;;;23.85;;
68074;SDS011;54864;52.002;5.468;2023-03-09T02:50:58;34.78;;;23.85;;
68074;SDS011;54864;52.002;5.468;2023-03-09T02:51:59;36.45;;;24.70;;
68074;SDS011;54864;52.002;5.468;2023-03-09T02:53:01;37.05;;;25.02;;
68074;SDS011;54864;52.002;5.468;2023-03-09T02:54:02;36.40;;;24.73;;
68074;SDS011;54864;52.002;5.468;2023-03-09T02:55:05;35.38;;;23.92;;
68074;SDS011;54864;52.002;5.468;2023-03-09T02:56:07;38.08;;;25.52;;
68074;SDS011;54864;52.002;5.468;2023-03-09T02:57:09;35.20;;;23.40;;
68074;SDS011;54864;52.002;5.468;2023-03-09T02:58:10;38.33;;;25.53;;
68074;SDS011;54864;52.002;5.468;2023-03-09T02:59:13;38.40;;;24.60;;
68074;SDS011;54864;52.002;5.468;2023-03-09T03:00:14;41.40;;;26.38;;
68074;SDS011;54864;52.002;5.468;2023-03-09T03:01:17;37.42;;;25.10;;
68074;SDS011;54864;52.002;5.468;2023-03-09T03:02:17;35.83;;;24.67;;
68074;SDS011;54864;52.002;5.468;2023-03-09T03:03:19;36.08;;;24.17;;
68074;SDS011;54864;52.002;5.468;2023-03-09T03:04:20;39.72;;;25.60;;
68074;SDS011;54864;52.002;5.468;2023-03-09T03:05:22;36.28;;;25.23;;
68074;SDS011;54864;52.002;5.468;2023-03-09T03:06:23;36.22;;;23.95;;
68074;SDS011;54864;52.002;5.468;2023-03-09T03:07:25;37.95;;;25.52;;
68074;SDS011;54864;52.002;5.468;2023-03-09T03:08:25;38.15;;;25.13;;
68074;SDS011;54864;52.002;5.468;2023-03-09T03:09:27;37.75;;;24.75;;
68074;SDS011;54864;52.002;5.468;2023-03-09T03:10:28;39.90;;;26.00;;
68074;SDS011;54864;52.002;5.468;2023-03-09T03:11:29;37.42;;;24.60;;
68074;SDS011;54864;52.002;5.468;2023-03-09T03:12:30;39.08;;;25.55;;
68074;SDS011;54864;52.002;5.468;2023-03-09T03:13:32;37.95;;;25.27;;
68074;SDS011;54864;52.002;5.468;2023-03-09T03:14:34;39.95;;;25.73;;
68074;SDS011;54864;52.002;5.468;2023-03-09T03:15:36;38.20;;;24.83;;
68074;SDS011;54864;52.002;5.468;2023-03-09T03:16:37;37.77;;;25.43;;
68074;SDS011;54864;52.002;5.468;2023-03-09T03:17:38;36.63;;;24.85;;
68074;SDS011;54864;52.002;5.468;2023-03-09T03:18:39;37.53;;;25.73;;
68074;SDS011;54864;52.002;5.468;2023-03-09T03:19:41;39.03;;;25.80;;
68074;SDS011;54864;52.002;5.468;2023-03-09T03:20:42;35.87;;;24.80;;
68074;SDS011;54864;52.002;5.468;2023-03-09T03:21:44;36.38;;;24.15;;
68074;SDS011;54864;52.002;5.468;2023-03-09T03:22:45;36.72;;;24.17;;
68074;SDS011;54864;52.002;5.468;2023-03-09T03:23:47;37.08;;;25.17;;
68074;SDS011;54864;52.002;5.468;2023-03-09T03:24:48;36.58;;;24.42;;
68074;SDS011;54864;52.002;5.468;2023-03-09T03:25:50;37.60;;;24.67;;
68074;SDS011;54864;52.002;5.468;2023-03-09T03:26:50;36.42;;;24.92;;
68074;SDS011;54864;52.002;5.468;2023-03-09T03:27:52;38.35;;;25.55;;
68074;SDS011;54864;52.002;5.468;2023-03-09T03:28:53;39.58;;;26.42;;
68074;SDS011;54864;52.002;5.468;2023-03-09T03:29:56;38.50;;;25.15;;
68074;SDS011;54864;52.002;5.468;2023-03-09T03:30:58;37.35;;;25.27;;
68074;SDS011;54864;52.002;5.468;2023-03-09T03:32:00;36.42;;;25.38;;
68074;SDS011;54864;52.002;5.468;2023-03-09T03:33:01;36.72;;;24.75;;
68074;SDS011;54864;52.002;5.468;2023-03-09T03:34:03;38.30;;;25.60;;
68074;SDS011;54864;52.002;5.468;2023-03-09T03:35:04;37.33;;;24.85;;
68074;SDS011;54864;52.002;5.468;2023-03-09T03:36:06;37.70;;;25.08;;
68074;SDS011;54864;52.002;5.468;2023-03-09T03:37:08;38.30;;;25.38;;
68074;SDS011;54864;52.002;5.468;2023-03-09T03:38:09;41.33;;;24.58;;
68074;SDS011;54864;52.002;5.468;2023-03-09T03:39:10;39.50;;;25.53;;
68074;SDS011;54864;52.002;5.468;2023-03-09T03:40:12;38.42;;;24.35;;
68074;SDS011;54864;52.002;5.468;2023-03-09T03:41:13;37.30;;;25.92;;
68074;SDS011;54864;52.002;5.468;2023-03-09T03:42:15;40.92;;;25.60;;
68074;SDS011;54864;52.002;5.468;2023-03-09T03:43:16;40.50;;;25.30;;
68074;SDS011;54864;52.002;5.468;2023-03-09T03:44:17;37.83;;;26.30;;
68074;SDS011;54864;52.002;5.468;2023-03-09T03:45:19;36.50;;;23.98;;
68074;SDS011;54864;52.002;5.468;2023-03-09T03:46:21;34.78;;;24.13;;
68074;SDS011;54864;52.002;5.468;2023-03-09T03:47:22;39.40;;;25.05;;
68074;SDS011;54864;52.002;5.468;2023-03-09T03:48:24;38.38;;;25.42;;
68074;SDS011;54864;52.002;5.468;2023-03-09T03:49:25;39.83;;;26.40;;
68074;SDS011;54864;52.002;5.468;2023-03-09T03:50:26;38.03;;;23.60;;
68074;SDS011;54864;52.002;5.468;2023-03-09T03:51:27;39.87;;;25.73;;
68074;SDS011;54864;52.002;5.468;2023-03-09T03:52:29;34.60;;;24.08;;
68074;SDS011;54864;52.002;5.468;2023-03-09T03:53:29;38.25;;;25.02;;
68074;SDS011;54864;52.002;5.468;2023-03-09T03:54:31;37.90;;;25.20;;
68074;SDS011;54864;52.002;5.468;2023-03-09T03:55:32;42.07;;;25.90;;
68074;SDS011;54864;52.002;5.468;2023-03-09T03:56:34;39.42;;;24.45;;
68074;SDS011;54864;52.002;5.468;2023-03-09T03:57:34;36.95;;;24.85;;
68074;SDS011;54864;52.002;5.468;2023-03-09T03:58:36;41.97;;;26.55;;
68074;SDS011;54864;52.002;5.468;2023-03-09T03:59:37;36.17;;;24.10;;
68074;SDS011;54864;52.002;5.468;2023-03-09T04:00:40;37.17;;;25.40;;
68074;SDS011;54864;52.002;5.468;2023-03-09T04:01:41;36.60;;;25.10;;
68074;SDS011;54864;52.002;5.468;2023-03-09T04:02:42;36.65;;;25.02;;
68074;SDS011;54864;52.002;5.468;2023-03-09T04:03:43;37.70;;;24.67;;
68074;SDS011;54864;52.002;5.468;2023-03-09T04:04:45;39.42;;;25.52;;
68074;SDS011;54864;52.002;5.468;2023-03-09T04:05:46;37.17;;;24.47;;
68074;SDS011;54864;52.002;5.468;2023-03-09T04:06:47;36.50;;;24.90;;
68074;SDS011;54864;52.002;5.468;2023-03-09T04:07:48;37.47;;;24.25;;
68074;SDS011;54864;52.002;5.468;2023-03-09T04:08:51;38.35;;;25.83;;
68074;SDS011;54864;52.002;5.468;2023-03-09T04:09:52;38.67;;;25.40;;
68074;SDS011;54864;52.002;5.468;2023-03-09T04:10:54;40.03;;;25.00;;
68074;SDS011;54864;52.002;5.468;2023-03-09T04:11:54;37.33;;;24.90;;
68074;SDS011;54864;52.002;5.468;2023-03-09T04:12:56;37.83;;;25.05;;
68074;SDS011;54864;52.002;5.468;2023-03-09T04:13:58;36.13;;;23.58;;
68074;SDS011;54864;52.002;5.468;2023-03-09T04:14:59;36.40;;;24.95;;
68074;SDS011;54864;52.002;5.468;2023-03-09T04:16:01;38.70;;;24.80;;
68074;SDS011;54864;52.002;5.468;2023-03-09T04:17:04;39.85;;;25.15;;
68074;SDS011;54864;52.002;5.468;2023-03-09T04:18:04;38.22;;;25.38;;
68074;SDS011;54864;52.002;5.468;2023-03-09T04:19:07;36.30;;;24.48;;
68074;SDS011;54864;52.002;5.468;2023-03-09T04:20:08;38.08;;;24.33;;
68074;SDS011;54864;52.002;5.468;2023-03-09T04:21:11;33.80;;;24.00;;
68074;SDS011;54864;52.002;5.468;2023-03-09T04:22:11;39.20;;;25.70;;
68074;SDS011;54864;52.002;5.468;2023-03-09T04:23:13;37.17;;;24.42;;
68074;SDS011;54864;52.002;5.468;2023-03-09T04:24:14;39.50;;;25.70;;
68074;SDS011;54864;52.002;5.468;2023-03-09T04:25:16;38.40;;;24.88;;
68074;SDS011;54864;52.002;5.468;2023-03-09T04:26:17;37.65;;;25.83;;
68074;SDS011;54864;52.002;5.468;2023-03-09T04:27:18;38.40;;;25.00;;
68074;SDS011;54864;52.002;5.468;2023-03-09T04:28:19;39.42;;;25.27;;
68074;SDS011;54864;52.002;5.468;2023-03-09T04:29:21;37.90;;;25.42;;
68074;SDS011;54864;52.002;5.468;2023-03-09T04:30:22;38.10;;;25.43;;
68074;SDS011;54864;52.002;5.468;2023-03-09T04:31:25;35.08;;;23.88;;
68074;SDS011;54864;52.002;5.468;2023-03-09T04:32:25;37.55;;;24.58;;
68074;SDS011;54864;52.002;5.468;2023-03-09T04:33:27;37.35;;;25.05;;
68074;SDS011;54864;52.002;5.468;2023-03-09T04:34:28;36.95;;;25.02;;
68074;SDS011;54864;52.002;5.468;2023-03-09T04:35:30;38.08;;;25.27;;
68074;SDS011;54864;52.002;5.468;2023-03-09T04:36:32;36.33;;;24.52;;
68074;SDS011;54864;52.002;5.468;2023-03-09T04:37:34;38.65;;;25.25;;
68074;SDS011;54864;52.002;5.468;2023-03-09T04:38:35;39.20;;;25.38;;
68074;SDS011;54864;52.002;5.468;2023-03-09T04:39:36;38.90;;;24.73;;
68074;SDS011;54864;52.002;5.468;2023-03-09T04:40:37;39.55;;;24.83;;
68074;SDS011;54864;52.002;5.468;2023-03-09T04:41:39;39.97;;;26.23;;
68074;SDS011;54864;52.002;5.468;2023-03-09T04:42:40;36.50;;;24.25;;
68074;SDS011;54864;52.002;5.468;2023-03-09T04:43:42;37.53;;;24.25;;
68074;SDS011;54864;52.002;5.468;2023-03-09T04:44:42;37.95;;;24.38;;
68074;SDS011;54864;52.002;5.468;2023-03-09T04:45:44;37.47;;;24.52;;
68074;SDS011;54864;52.002;5.468;2023-03-09T04:46:46;36.83;;;25.13;;
68074;SDS011;54864;52.002;5.468;2023-03-09T04:47:48;38.15;;;24.80;;
68074;SDS011;54864;52.002;5.468;2023-03-09T04:48:48;38.15;;;25.85;;
68074;SDS011;54864;52.002;5.468;2023-03-09T04:49:50;40.30;;;25.67;;
68074;SDS011;54864;52.002;5.468;2023-03-09T04:50:51;37.60;;;25.23;;
68074;SDS011;54864;52.002;5.468;2023-03-09T04:51:53;38.88;;;23.73;;
68074;SDS011;54864;52.002;5.468;2023-03-09T04:52:53;35.95;;;24.60;;
68074;SDS011;54864;52.002;5.468;2023-03-09T04:53:55;36.53;;;24.30;;
68074;SDS011;54864;52.002;5.468;2023-03-09T04:54:56;36.45;;;23.75;;
68074;SDS011;54864;52.002;5.468;2023-03-09T04:55:58;38.13;;;23.88;;
68074;SDS011;54864;52.002;5.468;2023-03-09T04:56:59;37.40;;;24.63;;
68074;SDS011;54864;52.002;5.468;2023-03-09T04:58:01;37.22;;;24.42;;
68074;SDS011;54864;52.002;5.468;2023-03-09T04:59:01;36.83;;;24.02;;
68074;SDS011;54864;52.002;5.468;2023-03-09T05:00:03;37.83;;;24.65;;
68074;SDS011;54864;52.002;5.468;2023-03-09T05:01:08;38.00;;;24.60;;
68074;SDS011;54864;52.002;5.468;2023-03-09T05:02:11;34.88;;;23.92;;
68074;SDS011;54864;52.002;5.468;2023-03-09T05:03:12;37.40;;;24.55;;
68074;SDS011;54864;52.002;5.468;2023-03-09T05:04:13;38.55;;;24.30;;
68074;SDS011;54864;52.002;5.468;2023-03-09T05:05:14;37.33;;;24.87;;
68074;SDS011;54864;52.002;5.468;2023-03-09T05:06:17;34.95;;;24.10;;
68074;SDS011;54864;52.002;5.468;2023-03-09T05:07:18;34.80;;;24.10;;
68074;SDS011;54864;52.002;5.468;2023-03-09T05:08:20;36.58;;;24.88;;
68074;SDS011;54864;52.002;5.468;2023-03-09T05:09:20;35.97;;;24.35;;
68074;SDS011;54864;52.002;5.468;2023-03-09T05:10:22;39.42;;;24.42;;
68074;SDS011;54864;52.002;5.468;2023-03-09T05:11:23;36.60;;;24.40;;
68074;SDS011;54864;52.002;5.468;2023-03-09T05:12:25;36.78;;;24.60;;
68074;SDS011;54864;52.002;5.468;2023-03-09T05:13:31;37.23;;;23.83;;
68074;SDS011;54864;52.002;5.468;2023-03-09T05:14:33;38.05;;;25.08;;
68074;SDS011;54864;52.002;5.468;2023-03-09T05:15:33;37.20;;;24.13;;
68074;SDS011;54864;52.002;5.468;2023-03-09T05:16:38;37.15;;;23.92;;
68074;SDS011;54864;52.002;5.468;2023-03-09T05:17:40;39.38;;;25.85;;
68074;SDS011;54864;52.002;5.468;2023-03-09T05:18:42;40.22;;;25.63;;
68074;SDS011;54864;52.002;5.468;2023-03-09T05:19:42;39.10;;;25.20;;
68074;SDS011;54864;52.002;5.468;2023-03-09T05:20:44;44.20;;;25.30;;
68074;SDS011;54864;52.002;5.468;2023-03-09T05:21:45;37.50;;;24.90;;
68074;SDS011;54864;52.002;5.468;2023-03-09T05:22:47;37.75;;;25.02;;
68074;SDS011;54864;52.002;5.468;2023-03-09T05:23:48;41.65;;;26.10;;
68074;SDS011;54864;52.002;5.468;2023-03-09T05:24:49;39.20;;;25.45;;
68074;SDS011;54864;52.002;5.468;2023-03-09T05:25:56;38.37;;;25.00;;
68074;SDS011;54864;52.002;5.468;2023-03-09T05:26:58;36.83;;;24.30;;
68074;SDS011;54864;52.002;5.468;2023-03-09T05:27:59;41.50;;;26.27;;
68074;SDS011;54864;52.002;5.468;2023-03-09T05:29:01;41.00;;;24.27;;
68074;SDS011;54864;52.002;5.468;2023-03-09T05:30:02;39.10;;;25.77;;
68074;SDS011;54864;52.002;5.468;2023-03-09T05:31:06;37.15;;;24.88;;
68074;SDS011;54864;52.002;5.468;2023-03-09T05:32:08;40.20;;;26.17;;
68074;SDS011;54864;52.002;5.468;2023-03-09T05:33:11;40.15;;;26.05;;
68074;SDS011;54864;52.002;5.468;2023-03-09T05:34:12;38.70;;;25.48;;
68074;SDS011;54864;52.002;5.468;2023-03-09T05:35:13;38.85;;;25.40;;
68074;SDS011;54864;52.002;5.468;2023-03-09T05:36:15;39.80;;;26.10;;
68074;SDS011;54864;52.002;5.468;2023-03-09T05:37:18;38.55;;;26.17;;
68074;SDS011;54864;52.002;5.468;2023-03-09T05:38:19;38.60;;;25.38;;
68074;SDS011;54864;52.002;5.468;2023-03-09T05:39:21;38.58;;;25.35;;
68074;SDS011;54864;52.002;5.468;2023-03-09T05:40:22;38.50;;;25.05;;
68074;SDS011;54864;52.002;5.468;2023-03-09T05:41:24;37.55;;;24.95;;
68074;SDS011;54864;52.002;5.468;2023-03-09T05:42:24;38.10;;;24.85;;
68074;SDS011;54864;52.002;5.468;2023-03-09T05:43:26;40.38;;;24.75;;
68074;SDS011;54864;52.002;5.468;2023-03-09T05:44:27;39.30;;;25.60;;
68074;SDS011;54864;52.002;5.468;2023-03-09T05:45:29;38.75;;;25.42;;
68074;SDS011;54864;52.002;5.468;2023-03-09T05:46:30;39.55;;;24.92;;
68074;SDS011;54864;52.002;5.468;2023-03-09T05:47:31;35.97;;;24.35;;
68074;SDS011;54864;52.002;5.468;2023-03-09T05:48:34;40.10;;;24.58;;
68074;SDS011;54864;52.002;5.468;2023-03-09T05:49:35;39.10;;;25.93;;
68074;SDS011;54864;52.002;5.468;2023-03-09T05:50:36;36.77;;;24.67;;
68074;SDS011;54864;52.002;5.468;2023-03-09T05:51:39;37.78;;;24.77;;
68074;SDS011;54864;52.002;5.468;2023-03-09T05:52:39;36.65;;;23.88;;
68074;SDS011;54864;52.002;5.468;2023-03-09T05:53:41;38.63;;;25.20;;
68074;SDS011;54864;52.002;5.468;2023-03-09T05:54:42;36.47;;;24.48;;
68074;SDS011;54864;52.002;5.468;2023-03-09T05:55:43;40.53;;;25.80;;
68074;SDS011;54864;52.002;5.468;2023-03-09T05:56:44;34.95;;;24.10;;
68074;SDS011;54864;52.002;5.468;2023-03-09T05:57:46;41.65;;;26.88;;
68074;SDS011;54864;52.002;5.468;2023-03-09T05:58:47;39.28;;;24.90;;
68074;SDS011;54864;52.002;5.468;2023-03-09T05:59:50;37.92;;;25.88;;
68074;SDS011;54864;52.002;5.468;2023-03-09T06:00:51;41.15;;;25.92;;
68074;SDS011;54864;52.002;5.468;2023-03-09T06:01:53;39.50;;;26.35;;
68074;SDS011;54864;52.002;5.468;2023-03-09T06:02:54;41.53;;;27.02;;
68074;SDS011;54864;52.002;5.468;2023-03-09T06:03:57;42.15;;;27.38;;